Terminal Aerodrome Forecast
Issued by NWS Denver/Boulder, CO

Home | Current Version | Previous Version | Text Only | Print | Product List | Glossary On
Versions: 1 2 3 4 5 6 7 8 9 10 11 12 13 14 15 16 17 18 19 20 21 22 23 24 25 26 27 28 29 30 31 32 33 34 35 36 37 38 39 40 41 42 43 44 45 46 47 48 49 50
056
FTUS45 KBOU 250047 AAA
TAFDEN
TAF AMD
KDEN 250047Z 2501/2606 06005KT P6SM SCT070 BKN160
     FM250130 07005KT P6SM -SHRA SCT070 OVC120
     FM250300 18008KT P6SM FEW070 SCT120
     FM251200 21008KT P6SM FEW120
     FM251500 VRB05KT P6SM FEW120 BKN250
     FM251800 11010KT P6SM FEW100 BKN250
     FM260000 19015KT P6SM VCTS SCT080 BKN120CB
     FM260400 19012KT P6SM SCT080 BKN120=

USA.gov is the U.S. government's official web portal to all federal, state and local government web resources and services.